createdAt,value
2023-01-11T00:00:41.023Z,91.06
2023-01-11T00:03:10.392Z,91.00
2023-01-11T00:05:39.187Z,90.79
2023-01-11T00:08:08.100Z,91.03
2023-01-11T00:10:36.218Z,91.20
2023-01-11T00:13:04.255Z,91.55
2023-01-11T00:15:32.261Z,91.50
2023-01-11T00:18:00.197Z,92.17
2023-01-11T00:20:29.432Z,91.76
2023-01-11T00:22:57.474Z,91.66
2023-01-11T00:25:25.827Z,90.99
2023-01-11T00:27:54.967Z,91.29
2023-01-11T00:30:23.903Z,91.68
2023-01-11T00:32:56.610Z,92.24
2023-01-11T00:35:24.573Z,92.23
2023-01-11T00:37:55.202Z,92.21
2023-01-11T00:40:24.106Z,91.97
2023-01-11T00:43:09.480Z,91.63
2023-01-11T00:45:55.138Z,91.35
2023-01-11T00:48:23.045Z,91.81
2023-01-11T00:50:54.838Z,91.84
2023-01-11T00:53:24.123Z,92.19
2023-01-11T00:55:51.971Z,91.76
2023-01-11T00:58:19.854Z,92.51
2023-01-11T01:00:47.656Z,92.06
2023-01-11T01:03:15.538Z,92.13
2023-01-11T01:05:43.456Z,91.86
2023-01-11T01:08:11.617Z,91.75
2023-01-11T01:10:40.800Z,91.79
2023-01-11T01:13:28.881Z,91.40
2023-01-11T01:15:58.765Z,91.47
2023-01-11T01:18:26.700Z,91.79
2023-01-11T01:20:54.640Z,91.76
2023-01-11T01:23:22.694Z,92.26
2023-01-11T01:25:51.996Z,92.11
2023-01-11T01:28:22.113Z,92.73
2023-01-11T01:30:52.552Z,92.28
2023-01-11T01:33:20.514Z,91.95
2023-01-11T01:35:48.491Z,91.85
2023-01-11T01:38:16.496Z,91.94
2023-01-11T01:40:45.894Z,92.22
2023-01-11T01:43:17.297Z,92.40
2023-01-11T01:45:45.481Z,92.45
2023-01-11T01:48:19.052Z,93.00
2023-01-11T01:50:48.349Z,93.35
2023-01-11T01:53:21.133Z,92.98
2023-01-11T01:55:53.247Z,92.90
2023-01-11T01:58:30.191Z,93.19
2023-01-11T02:01:18.285Z,93.16
2023-01-11T02:03:46.477Z,93.27
2023-01-11T02:06:14.650Z,92.53
2023-01-11T02:08:47.939Z,92.79
2023-01-11T02:11:30.705Z,92.32
2023-01-11T02:14:04.331Z,92.30
2023-01-11T02:16:32.336Z,92.36
2023-01-11T02:19:01.981Z,92.35
2023-01-11T02:21:41.491Z,92.56
2023-01-11T02:24:36.550Z,92.90
2023-01-11T02:27:34.689Z,93.24
2023-01-11T02:30:14.840Z,93.00
2023-01-11T02:32:55.408Z,92.79
2023-01-11T02:35:33.218Z,93.30
2023-01-11T02:38:07.048Z,93.41
2023-01-11T02:40:43.343Z,92.85
2023-01-11T02:43:36.046Z,92.94
2023-01-11T02:46:11.814Z,92.43
2023-01-11T02:48:47.428Z,92.77
2023-01-11T02:51:20.845Z,93.24
2023-01-11T02:53:55.608Z,93.53
2023-01-11T02:56:26.813Z,93.39
2023-01-11T02:58:57.956Z,93.24
2023-01-11T03:01:27.307Z,93.19
2023-01-11T03:03:56.064Z,93.05
2023-01-11T03:06:27.993Z,92.82
2023-01-11T03:09:15.139Z,92.51
2023-01-11T03:12:15.187Z,92.25
2023-01-11T03:14:52.504Z,92.33
2023-01-11T03:17:36.223Z,91.40
2023-01-11T03:20:10.983Z,91.15
2023-01-11T03:22:47.391Z,91.82
2023-01-11T03:25:21.168Z,91.28
2023-01-11T03:27:54.606Z,91.34
2023-01-11T03:30:31.533Z,91.63
2023-01-11T03:33:05.144Z,92.27
2023-01-11T03:35:38.915Z,92.27
2023-01-11T03:38:11.550Z,92.02
2023-01-11T03:40:43.381Z,92.10
2023-01-11T03:43:13.705Z,92.25
2023-01-11T03:45:49.525Z,91.73
2023-01-11T03:48:23.080Z,91.10
2023-01-11T03:50:52.254Z,90.98
2023-01-11T03:53:24.032Z,91.56
2023-01-11T03:55:56.989Z,91.53
2023-01-11T03:58:26.907Z,90.93
2023-01-11T04:00:56.260Z,90.26
2023-01-11T04:03:27.237Z,89.88
2023-01-11T04:06:00.367Z,89.37
2023-01-11T04:08:28.684Z,89.46
2023-01-11T04:10:56.684Z,89.11
2023-01-11T04:13:24.579Z,88.99
2023-01-11T04:15:54.010Z,88.64
2023-01-11T04:18:21.989Z,88.11
2023-01-11T04:20:51.403Z,87.91
2023-01-11T04:25:48.236Z,88.40
2023-01-11T04:28:16.315Z,88.25
2023-01-11T04:30:44.182Z,87.97
2023-01-11T04:33:13.283Z,87.11
2023-01-11T04:35:41.915Z,86.15
2023-01-11T04:38:11.184Z,83.91
2023-01-11T04:40:39.228Z,82.74
2023-01-11T04:43:06.235Z,82.29
2023-01-11T04:45:34.352Z,81.94
2023-01-11T04:48:02.303Z,81.47
2023-01-11T04:50:30.425Z,80.77
2023-01-11T04:52:59.934Z,80.71
2023-01-11T04:55:29.226Z,80.92
2023-01-11T04:57:57.256Z,81.25
2023-01-11T05:00:25.769Z,81.58
2023-01-11T05:02:53.651Z,81.14
2023-01-11T05:05:21.571Z,80.59
2023-01-11T05:07:49.968Z,81.02
2023-01-11T05:10:20.787Z,81.34
2023-01-11T05:12:50.418Z,81.17
2023-01-11T05:15:18.488Z,80.83
2023-01-11T05:17:46.598Z,80.27
2023-01-11T05:20:14.656Z,80.38
2023-01-11T05:22:42.761Z,80.42
2023-01-11T05:25:10.917Z,80.16
2023-01-11T05:27:39.138Z,80.12
2023-01-11T05:30:10.247Z,80.38
2023-01-11T05:32:38.160Z,79.84
2023-01-11T05:35:10.020Z,80.11
2023-01-11T05:37:38.096Z,79.64
2023-01-11T05:40:07.899Z,78.92
2023-01-11T05:42:35.965Z,78.45
2023-01-11T05:45:21.778Z,78.50
2023-01-11T05:47:53.910Z,78.66
2023-01-11T05:50:22.067Z,79.05
2023-01-11T05:52:50.134Z,78.93
2023-01-11T05:55:18.483Z,79.26
2023-01-11T05:57:46.839Z,79.56
2023-01-11T06:00:16.167Z,79.83
2023-01-11T06:02:44.148Z,79.74
2023-01-11T06:05:13.684Z,79.78
2023-01-11T06:07:41.721Z,79.56
2023-01-11T06:10:11.255Z,79.44
2023-01-11T06:12:39.217Z,79.12
2023-01-11T06:15:08.372Z,79.48
2023-01-11T06:17:36.305Z,78.93
2023-01-11T06:20:04.821Z,78.82
2023-01-11T06:22:34.454Z,78.45
2023-01-11T06:25:02.455Z,78.31
2023-01-11T06:27:30.717Z,78.40
2023-01-11T06:29:58.700Z,78.83
2023-01-11T06:32:26.833Z,78.74
2023-01-11T06:34:54.949Z,78.61
2023-01-11T06:37:23.281Z,78.51
2023-01-11T06:39:53.477Z,78.91
2023-01-11T06:42:21.577Z,79.06
2023-01-11T06:44:49.777Z,79.09
2023-01-11T06:47:17.691Z,78.93
2023-01-11T06:49:45.740Z,78.85
2023-01-11T06:52:13.787Z,79.21
2023-01-11T06:54:41.755Z,78.85
2023-01-11T06:57:11.197Z,78.77
2023-01-11T06:59:39.716Z,79.08
2023-01-11T07:02:09.584Z,78.94
2023-01-11T07:04:37.542Z,78.51
2023-01-11T07:07:05.657Z,78.43
2023-01-11T07:09:33.792Z,78.48
2023-01-11T07:12:02.041Z,78.54
2023-01-11T07:14:31.948Z,78.02
2023-01-11T07:16:59.936Z,77.96
2023-01-11T07:19:28.104Z,77.49
2023-01-11T07:21:56.146Z,76.80
2023-01-11T07:24:24.519Z,76.16
2023-01-11T07:26:53.445Z,75.82
2023-01-11T07:29:21.451Z,75.11
2023-01-11T07:31:51.109Z,74.55
2023-01-11T07:34:19.234Z,74.76
2023-01-11T07:36:47.330Z,74.46
2023-01-11T07:39:15.332Z,74.78
2023-01-11T07:42:00.771Z,74.28
2023-01-11T07:44:28.745Z,74.39
2023-01-11T07:46:58.301Z,74.77
2023-01-11T07:49:26.868Z,74.59
2023-01-11T07:51:54.937Z,75.42
2023-01-11T07:54:24.631Z,75.46
2023-01-11T07:56:53.015Z,75.61
2023-01-11T07:59:21.041Z,75.91
2023-01-11T08:01:49.161Z,76.75
2023-01-11T08:04:18.690Z,77.07
2023-01-11T08:06:46.715Z,77.19
2023-01-11T08:09:14.679Z,76.79
2023-01-11T08:12:00.129Z,76.54
2023-01-11T08:14:40.733Z,76.38
2023-01-11T08:17:09.205Z,76.19
2023-01-11T08:19:38.938Z,76.14
2023-01-11T08:22:07.128Z,76.38
2023-01-11T08:24:35.680Z,76.37
2023-01-11T08:27:04.490Z,76.52
2023-01-11T08:29:32.868Z,75.84
2023-01-11T08:32:01.083Z,75.59
2023-01-11T08:34:29.751Z,76.21
2023-01-11T08:37:02.342Z,76.43
2023-01-11T08:39:31.537Z,76.51
2023-01-11T08:41:59.893Z,76.62
2023-01-11T08:44:35.250Z,75.98
2023-01-11T08:47:04.186Z,76.18
2023-01-11T08:49:32.461Z,75.86
2023-01-11T08:52:01.798Z,75.13
2023-01-11T08:54:29.961Z,75.07
2023-01-11T08:56:57.896Z,74.57
2023-01-11T08:59:25.952Z,74.68
2023-01-11T09:01:54.369Z,74.53
2023-01-11T09:04:25.417Z,74.01
2023-01-11T09:06:53.918Z,74.36
2023-01-11T09:09:25.472Z,74.28
2023-01-11T09:11:57.134Z,74.10
2023-01-11T09:14:27.283Z,74.64
2023-01-11T09:16:56.287Z,74.59
2023-01-11T09:19:24.397Z,74.14
2023-01-11T09:21:53.309Z,74.00
2023-01-11T09:24:21.491Z,74.18
2023-01-11T09:26:51.192Z,73.50
2023-01-11T09:29:19.981Z,73.11
2023-01-11T09:31:48.350Z,73.32
2023-01-11T09:34:16.953Z,73.30
2023-01-11T09:36:47.349Z,73.04
2023-01-11T09:39:18.835Z,72.74
2023-01-11T09:42:12.779Z,72.84
2023-01-11T09:44:50.901Z,71.85
2023-01-11T09:47:29.109Z,71.81
2023-01-11T09:50:01.701Z,71.34
2023-01-11T09:52:37.069Z,71.87
2023-01-11T09:55:07.733Z,71.82
2023-01-11T09:58:07.939Z,72.19
2023-01-11T10:00:51.877Z,72.50
2023-01-11T10:03:54.403Z,72.57
2023-01-11T10:06:29.090Z,72.52
2023-01-11T10:18:27.915Z,72.81
2023-01-11T10:18:45.535Z,72.84
2023-01-11T10:21:15.964Z,73.12
2023-01-11T10:23:50.752Z,73.16
2023-01-11T10:26:28.817Z,73.30
2023-01-11T10:29:38.722Z,72.78
2023-01-11T10:32:34.667Z,72.72
2023-01-11T10:35:41.349Z,72.40
2023-01-11T10:38:42.735Z,72.21
2023-01-11T10:41:26.208Z,72.13
2023-01-11T10:44:05.340Z,72.21
2023-01-11T10:46:39.918Z,72.46
2023-01-11T10:49:26.975Z,72.22
2023-01-11T10:52:04.673Z,72.47
2023-01-11T10:54:37.383Z,72.70
2023-01-11T10:57:19.186Z,73.11
2023-01-11T11:00:15.453Z,73.83
2023-01-11T11:03:08.341Z,73.05
2023-01-11T11:05:49.085Z,72.62
2023-01-11T11:08:26.588Z,73.07
2023-01-11T11:11:00.377Z,73.08
2023-01-11T11:13:43.607Z,73.15
2023-01-11T11:16:23.001Z,72.66
2023-01-11T11:18:53.047Z,73.02
2023-01-11T11:21:24.852Z,72.63
2023-01-11T11:23:58.191Z,72.60
2023-01-11T11:26:30.523Z,72.18
2023-01-11T11:29:08.052Z,72.13
2023-01-11T11:31:38.500Z,72.31
2023-01-11T11:34:09.581Z,71.35
2023-01-11T11:36:51.504Z,71.31
2023-01-11T11:39:22.373Z,71.79
2023-01-11T11:41:52.717Z,71.49
2023-01-11T11:44:24.925Z,71.23
2023-01-11T11:47:03.723Z,71.55
2023-01-11T11:49:33.567Z,71.56
2023-01-11T11:52:06.597Z,71.39
2023-01-11T11:54:41.019Z,71.04
2023-01-11T11:57:16.898Z,70.87
2023-01-11T11:59:50.475Z,70.53
2023-01-11T12:02:23.689Z,70.21
2023-01-11T12:04:53.136Z,70.06
2023-01-11T12:07:25.393Z,70.63
2023-01-11T12:10:01.055Z,70.24
2023-01-11T12:12:29.872Z,69.39
2023-01-11T12:15:10.709Z,69.65
2023-01-11T12:17:38.795Z,69.60
2023-01-11T12:20:34.293Z,69.46
2023-01-11T12:23:19.150Z,70.17
2023-01-11T12:26:06.949Z,70.53
2023-01-11T12:29:01.214Z,69.39
2023-01-11T12:31:39.217Z,69.50
2023-01-11T12:34:21.158Z,69.63
2023-01-11T12:36:58.568Z,69.94
2023-01-11T12:39:37.403Z,69.26
2023-01-11T12:42:28.851Z,69.08
2023-01-11T12:45:08.391Z,68.93
2023-01-11T12:47:59.162Z,68.26
2023-01-11T12:50:31.828Z,68.79
2023-01-11T12:53:14.639Z,68.63
2023-01-11T12:55:58.751Z,68.22
2023-01-11T12:58:36.283Z,68.95
2023-01-11T13:01:30.219Z,68.87
2023-01-11T13:04:23.274Z,69.06
2023-01-11T13:07:04.253Z,68.90
2023-01-11T13:09:41.943Z,68.39
2023-01-11T13:12:15.932Z,68.12
2023-01-11T13:14:58.436Z,68.13
2023-01-11T13:17:34.926Z,68.42
2023-01-11T13:20:30.768Z,68.81
2023-01-11T13:23:03.776Z,69.17
2023-01-11T13:25:36.658Z,68.86
2023-01-11T13:28:23.940Z,69.02
2023-01-11T13:30:53.132Z,69.24
2023-01-11T13:33:24.692Z,69.38
2023-01-11T13:35:58.366Z,69.17
2023-01-11T13:38:37.475Z,68.81
2023-01-11T13:41:18.047Z,68.74
2023-01-11T13:43:56.276Z,69.10
2023-01-11T13:46:42.875Z,68.93
2023-01-11T13:49:20.520Z,68.63
2023-01-11T13:51:53.232Z,68.38
2023-01-11T13:54:26.548Z,68.18
2023-01-11T13:57:01.443Z,67.79
2023-01-11T13:59:35.443Z,67.01
2023-01-11T14:02:12.652Z,66.78
2023-01-11T14:04:46.920Z,67.16
2023-01-11T14:07:25.501Z,67.46
2023-01-11T14:10:21.695Z,67.32
2023-01-11T14:13:05.079Z,67.56
2023-01-11T14:15:41.505Z,67.73
2023-01-11T14:18:19.285Z,67.78
2023-01-11T14:20:55.374Z,67.57
2023-01-11T14:23:33.411Z,67.41
2023-01-11T14:26:26.754Z,67.72
2023-01-11T14:29:13.698Z,67.05
2023-01-11T14:31:59.984Z,67.08
2023-01-11T14:34:46.925Z,66.86
2023-01-11T14:37:37.450Z,66.85
2023-01-11T14:40:44.448Z,67.05
2023-01-11T14:43:39.957Z,67.35
2023-01-11T14:46:43.756Z,67.72
2023-01-11T14:49:32.734Z,67.78
2023-01-11T14:52:05.491Z,68.09
2023-01-11T14:54:38.696Z,68.34
2023-01-11T14:57:06.980Z,67.74
2023-01-11T14:59:38.370Z,67.91
2023-01-11T15:02:26.243Z,67.53
2023-01-11T15:05:38.752Z,66.93
2023-01-11T15:08:20.565Z,66.86
2023-01-11T15:10:53.851Z,66.25
2023-01-11T15:13:24.977Z,66.07
2023-01-11T15:16:22.751Z,65.92
2023-01-11T15:18:51.000Z,66.14
2023-01-11T15:21:25.221Z,66.54
2023-01-11T15:23:56.658Z,66.32
2023-01-11T15:26:27.382Z,66.80
2023-01-11T15:28:57.415Z,67.64
2023-01-11T15:31:39.317Z,67.92
2023-01-11T15:34:28.291Z,67.73
2023-01-11T15:37:32.823Z,67.69
2023-01-11T15:40:05.949Z,67.73
2023-01-11T15:43:14.129Z,67.36
2023-01-11T15:46:29.388Z,67.11
2023-01-11T15:49:55.912Z,67.90
2023-01-11T15:53:04.015Z,68.29
2023-01-11T15:56:11.875Z,68.59
2023-01-11T15:59:23.188Z,69.05
2023-01-11T16:02:34.171Z,68.90
2023-01-11T16:05:14.119Z,68.92
2023-01-11T16:07:48.607Z,68.99
2023-01-11T16:10:48.403Z,69.38
2023-01-11T16:13:31.111Z,69.57
2023-01-11T16:16:12.062Z,69.24
2023-01-11T16:18:44.321Z,69.33
2023-01-11T16:21:18.771Z,69.94
2023-01-11T16:23:48.325Z,70.10
2023-01-11T16:26:19.523Z,69.57
2023-01-11T16:28:50.113Z,69.31
2023-01-11T16:31:18.842Z,69.56
2023-01-11T16:33:49.583Z,70.18
2023-01-11T16:36:20.991Z,70.91
2023-01-11T16:38:57.885Z,69.79
2023-01-11T16:41:30.377Z,69.74
2023-01-11T16:44:03.804Z,69.18
2023-01-11T16:47:06.802Z,70.10
2023-01-11T16:49:35.795Z,69.92
2023-01-11T16:52:38.924Z,69.89
2023-01-11T16:55:21.848Z,69.27
2023-01-11T16:57:54.152Z,69.13
2023-01-11T17:00:36.109Z,69.19
2023-01-11T17:03:19.854Z,69.60
2023-01-11T17:05:56.364Z,68.88
2023-01-11T17:08:26.494Z,69.00
2023-01-11T17:10:58.880Z,69.50
2023-01-11T17:13:53.180Z,68.86
2023-01-11T17:16:23.112Z,68.92
2023-01-11T17:18:51.082Z,69.72
2023-01-11T17:21:23.365Z,69.27
2023-01-11T17:23:54.152Z,69.18
2023-01-11T17:26:25.629Z,68.88
2023-01-11T17:28:57.342Z,68.86
2023-01-11T17:31:28.323Z,68.50
2023-01-11T17:34:05.346Z,68.76
2023-01-11T17:36:34.115Z,68.94
2023-01-11T17:39:04.385Z,68.85
2023-01-11T17:41:51.900Z,68.79
2023-01-11T17:44:40.398Z,68.48
2023-01-11T17:47:12.248Z,68.61
2023-01-11T17:49:41.440Z,68.36
2023-01-11T17:52:12.014Z,68.33
2023-01-11T17:54:40.208Z,68.20
2023-01-11T17:57:11.217Z,67.67
2023-01-11T17:59:39.369Z,67.42
2023-01-11T18:02:13.256Z,67.59
2023-01-11T18:04:41.480Z,67.79
2023-01-11T18:07:16.667Z,67.99
2023-01-11T18:09:46.797Z,68.22
2023-01-11T18:12:21.555Z,67.72
2023-01-11T18:14:53.833Z,68.03
2023-01-11T18:17:39.028Z,68.27
2023-01-11T18:20:36.304Z,68.75
2023-01-11T18:23:18.701Z,69.27
2023-01-11T18:25:46.915Z,68.98
2023-01-11T18:28:27.575Z,69.61
2023-01-11T18:30:59.252Z,69.67
2023-01-11T18:33:30.445Z,70.14
2023-01-11T18:36:01.715Z,70.20
2023-01-11T18:38:32.311Z,70.95
2023-01-11T18:41:25.128Z,70.74
2023-01-11T18:43:55.463Z,71.37
2023-01-11T18:46:23.567Z,70.99
2023-01-11T18:48:52.211Z,71.14
2023-01-11T18:51:30.235Z,71.29
2023-01-11T18:53:58.649Z,70.76
2023-01-11T18:56:26.694Z,70.94
2023-01-11T18:58:55.906Z,71.54
2023-01-11T19:01:24.068Z,70.94
2023-01-11T19:03:52.376Z,71.09
2023-01-11T19:06:22.763Z,71.37
2023-01-11T19:08:50.787Z,71.41
2023-01-11T19:11:19.022Z,71.54
2023-01-11T19:13:47.370Z,71.37
2023-01-11T19:16:16.728Z,72.23
2023-01-11T19:18:45.861Z,71.90
2023-01-11T19:21:14.388Z,72.77
2023-01-11T19:23:42.979Z,72.48
2023-01-11T19:26:11.019Z,72.78
2023-01-11T19:28:38.868Z,72.22
2023-01-11T19:31:07.857Z,72.68
2023-01-11T19:33:37.201Z,72.31
2023-01-11T19:36:06.962Z,72.45
2023-01-11T19:38:35.162Z,73.14
2023-01-11T19:41:05.557Z,74.10
2023-01-11T19:43:34.473Z,74.70
2023-01-11T19:46:05.655Z,75.79
2023-01-11T19:48:34.501Z,76.48
2023-01-11T19:51:05.469Z,77.57
2023-01-11T19:53:33.866Z,77.40
2023-01-11T19:56:02.238Z,77.99
2023-01-11T19:58:30.545Z,77.93
2023-01-11T20:00:58.573Z,77.80
2023-01-11T20:03:26.754Z,77.63
2023-01-11T20:05:54.781Z,78.36
2023-01-11T20:08:24.351Z,78.88
2023-01-11T20:10:52.435Z,79.62
2023-01-11T20:13:20.447Z,80.48
2023-01-11T20:15:48.569Z,80.35
2023-01-11T20:18:16.565Z,80.88
2023-01-11T20:20:44.681Z,80.99
2023-01-11T20:23:12.844Z,81.22
2023-01-11T20:25:42.145Z,81.52
2023-01-11T20:28:10.234Z,81.89
2023-01-11T20:30:41.109Z,81.44
2023-01-11T20:33:10.192Z,81.25
2023-01-11T20:35:38.552Z,81.58
2023-01-11T20:38:06.684Z,81.29
2023-01-11T20:40:34.873Z,81.51
2023-01-11T20:43:04.643Z,81.23
2023-01-11T20:45:33.547Z,81.07
2023-01-11T20:48:01.870Z,80.98
2023-01-11T20:50:30.425Z,80.77
2023-01-11T20:53:00.286Z,81.16
2023-01-11T20:55:28.716Z,81.53
2023-01-11T20:57:58.117Z,81.22
2023-01-11T21:00:29.579Z,81.75
2023-01-11T21:02:57.732Z,81.81
2023-01-11T21:05:25.865Z,82.20
2023-01-11T21:07:53.946Z,82.47
2023-01-11T21:10:22.115Z,81.88
2023-01-11T21:12:51.980Z,82.02
2023-01-11T21:15:20.222Z,82.73
2023-01-11T21:17:50.110Z,82.11
2023-01-11T21:20:18.787Z,81.62
2023-01-11T21:22:46.837Z,81.73
2023-01-11T21:25:17.444Z,81.18
2023-01-11T21:27:45.749Z,81.41
2023-01-11T21:30:14.977Z,81.44
2023-01-11T21:32:44.366Z,82.03
2023-01-11T21:35:14.763Z,82.05
2023-01-11T21:37:43.351Z,82.39
2023-01-11T21:40:16.361Z,82.71
2023-01-11T21:42:45.954Z,81.89
2023-01-11T21:45:15.961Z,81.03
2023-01-11T21:47:44.888Z,81.32
2023-01-11T21:50:14.293Z,81.61
2023-01-11T21:52:42.585Z,80.95
2023-01-11T21:55:11.403Z,79.85
2023-01-11T21:57:39.496Z,80.34
2023-01-11T22:00:11.024Z,80.33
2023-01-11T22:02:43.035Z,79.89
2023-01-11T22:05:12.439Z,80.25
2023-01-11T22:07:43.559Z,79.89
2023-01-11T22:10:12.429Z,80.12
2023-01-11T22:12:40.727Z,79.04
2023-01-11T22:15:10.448Z,78.93
2023-01-11T22:17:38.790Z,78.38
2023-01-11T22:20:07.953Z,79.21
2023-01-11T22:22:35.847Z,77.84
2023-01-11T22:25:06.177Z,76.32
2023-01-11T22:27:34.143Z,74.90
2023-01-11T22:30:02.174Z,72.92
2023-01-11T22:32:31.363Z,73.45
2023-01-11T22:34:59.430Z,73.62
2023-01-11T22:37:29.233Z,75.12
2023-01-11T22:40:00.118Z,78.11
2023-01-11T22:42:30.705Z,79.34
2023-01-11T22:44:58.663Z,80.18
2023-01-11T22:47:26.575Z,81.17
2023-01-11T22:49:55.901Z,81.39
2023-01-11T22:52:23.947Z,80.49
2023-01-11T22:54:52.026Z,80.58
2023-01-11T22:57:19.977Z,79.56
2023-01-11T22:59:49.212Z,78.70
2023-01-11T23:02:18.244Z,78.60
2023-01-11T23:04:46.169Z,78.56
2023-01-11T23:07:13.978Z,77.96
2023-01-11T23:09:42.110Z,77.67
2023-01-11T23:12:27.659Z,76.69
2023-01-11T23:14:57.007Z,75.70
2023-01-11T23:17:25.634Z,75.01
2023-01-11T23:19:53.647Z,74.64
2023-01-11T23:22:21.714Z,74.13
2023-01-11T23:24:49.583Z,74.20
2023-01-11T23:27:17.563Z,73.80
2023-01-11T23:29:45.719Z,73.97
2023-01-11T23:32:14.963Z,74.07
2023-01-11T23:34:43.067Z,75.33
2023-01-11T23:37:10.997Z,76.23
2023-01-11T23:39:39.149Z,75.95
2023-01-11T23:42:24.684Z,76.79
2023-01-11T23:44:52.565Z,77.17
2023-01-11T23:47:22.153Z,77.60
2023-01-11T23:49:50.877Z,76.84
2023-01-11T23:52:19.846Z,75.82
2023-01-11T23:54:47.963Z,75.35
2023-01-11T23:57:17.202Z,75.19
2023-01-11T23:59:45.507Z,74.51
